sensor_id;sensor_type;location;lat;lon;timestamp;P1;durP1;ratioP1;P2;durP2;ratioP2
14247;SDS011;7208;49.826;6.004;2023-05-07T00:01:49;3.23;;;2.93;;
14247;SDS011;7208;49.826;6.004;2023-05-07T00:04:15;3.83;;;3.43;;
14247;SDS011;7208;49.826;6.004;2023-05-07T00:06:41;3.20;;;2.83;;
14247;SDS011;7208;49.826;6.004;2023-05-07T00:09:07;3.37;;;3.10;;
14247;SDS011;7208;49.826;6.004;2023-05-07T00:11:33;3.27;;;2.97;;
14247;SDS011;7208;49.826;6.004;2023-05-07T00:13:59;3.43;;;3.10;;
14247;SDS011;7208;49.826;6.004;2023-05-07T00:16:26;5.23;;;3.00;;
14247;SDS011;7208;49.826;6.004;2023-05-07T00:18:52;3.40;;;3.10;;
14247;SDS011;7208;49.826;6.004;2023-05-07T00:21:18;3.43;;;3.10;;
14247;SDS011;7208;49.826;6.004;2023-05-07T00:23:44;5.67;;;2.90;;
14247;SDS011;7208;49.826;6.004;2023-05-07T00:26:10;3.90;;;3.43;;
14247;SDS011;7208;49.826;6.004;2023-05-07T00:28:36;3.37;;;3.07;;
14247;SDS011;7208;49.826;6.004;2023-05-07T00:31:02;3.93;;;3.53;;
14247;SDS011;7208;49.826;6.004;2023-05-07T00:33:28;3.67;;;3.40;;
14247;SDS011;7208;49.826;6.004;2023-05-07T00:35:54;3.60;;;3.30;;
14247;SDS011;7208;49.826;6.004;2023-05-07T00:38:20;5.80;;;3.57;;
14247;SDS011;7208;49.826;6.004;2023-05-07T00:40:46;5.00;;;3.63;;
14247;SDS011;7208;49.826;6.004;2023-05-07T00:43:12;4.17;;;3.83;;
14247;SDS011;7208;49.826;6.004;2023-05-07T00:45:38;3.80;;;3.47;;
14247;SDS011;7208;49.826;6.004;2023-05-07T00:48:04;4.83;;;3.63;;
14247;SDS011;7208;49.826;6.004;2023-05-07T00:50:30;4.00;;;3.70;;
14247;SDS011;7208;49.826;6.004;2023-05-07T00:52:57;4.77;;;4.37;;
14247;SDS011;7208;49.826;6.004;2023-05-07T00:55:24;5.03;;;3.80;;
14247;SDS011;7208;49.826;6.004;2023-05-07T00:57:50;3.87;;;3.57;;
14247;SDS011;7208;49.826;6.004;2023-05-07T01:00:16;3.80;;;3.50;;
14247;SDS011;7208;49.826;6.004;2023-05-07T01:02:42;3.60;;;3.30;;
14247;SDS011;7208;49.826;6.004;2023-05-07T01:05:09;4.03;;;3.73;;
14247;SDS011;7208;49.826;6.004;2023-05-07T01:07:37;5.90;;;3.20;;
14247;SDS011;7208;49.826;6.004;2023-05-07T01:10:04;3.63;;;2.80;;
14247;SDS011;7208;49.826;6.004;2023-05-07T01:12:31;3.80;;;3.50;;
14247;SDS011;7208;49.826;6.004;2023-05-07T01:14:57;3.87;;;3.57;;
14247;SDS011;7208;49.826;6.004;2023-05-07T01:17:23;5.07;;;3.27;;
14247;SDS011;7208;49.826;6.004;2023-05-07T01:19:49;5.03;;;3.57;;
14247;SDS011;7208;49.826;6.004;2023-05-07T01:22:23;3.57;;;3.37;;
14247;SDS011;7208;49.826;6.004;2023-05-07T01:24:52;3.43;;;3.03;;
14247;SDS011;7208;49.826;6.004;2023-05-07T01:27:19;5.50;;;3.30;;
14247;SDS011;7208;49.826;6.004;2023-05-07T01:29:45;3.43;;;3.13;;
14247;SDS011;7208;49.826;6.004;2023-05-07T01:32:11;3.40;;;3.00;;
14247;SDS011;7208;49.826;6.004;2023-05-07T01:34:37;3.23;;;2.90;;
14247;SDS011;7208;49.826;6.004;2023-05-07T01:37:04;4.07;;;3.67;;
14247;SDS011;7208;49.826;6.004;2023-05-07T01:39:30;4.57;;;3.57;;
14247;SDS011;7208;49.826;6.004;2023-05-07T01:41:57;3.63;;;3.33;;
14247;SDS011;7208;49.826;6.004;2023-05-07T01:44:24;3.63;;;3.33;;
14247;SDS011;7208;49.826;6.004;2023-05-07T01:46:51;3.40;;;3.17;;
14247;SDS011;7208;49.826;6.004;2023-05-07T01:49:17;3.30;;;3.00;;
14247;SDS011;7208;49.826;6.004;2023-05-07T01:51:44;3.47;;;3.17;;
14247;SDS011;7208;49.826;6.004;2023-05-07T01:54:10;3.53;;;3.23;;
14247;SDS011;7208;49.826;6.004;2023-05-07T01:56:36;3.60;;;3.30;;
14247;SDS011;7208;49.826;6.004;2023-05-07T01:59:02;5.93;;;3.53;;
14247;SDS011;7208;49.826;6.004;2023-05-07T02:01:28;4.20;;;3.50;;
14247;SDS011;7208;49.826;6.004;2023-05-07T02:03:54;3.43;;;3.17;;
14247;SDS011;7208;49.826;6.004;2023-05-07T02:06:20;4.97;;;3.80;;
14247;SDS011;7208;49.826;6.004;2023-05-07T02:08:46;3.90;;;3.57;;
14247;SDS011;7208;49.826;6.004;2023-05-07T02:11:12;3.73;;;3.43;;
14247;SDS011;7208;49.826;6.004;2023-05-07T02:13:38;3.43;;;3.23;;
14247;SDS011;7208;49.826;6.004;2023-05-07T02:16:05;5.10;;;3.30;;
14247;SDS011;7208;49.826;6.004;2023-05-07T02:18:31;5.53;;;3.13;;
14247;SDS011;7208;49.826;6.004;2023-05-07T02:20:57;3.40;;;3.10;;
14247;SDS011;7208;49.826;6.004;2023-05-07T02:23:23;3.70;;;3.13;;
14247;SDS011;7208;49.826;6.004;2023-05-07T02:25:51;3.33;;;3.03;;
14247;SDS011;7208;49.826;6.004;2023-05-07T02:28:17;3.33;;;3.07;;
14247;SDS011;7208;49.826;6.004;2023-05-07T02:30:43;4.37;;;3.17;;
14247;SDS011;7208;49.826;6.004;2023-05-07T02:33:09;3.43;;;3.07;;
14247;SDS011;7208;49.826;6.004;2023-05-07T02:35:37;4.03;;;3.00;;
14247;SDS011;7208;49.826;6.004;2023-05-07T02:38:03;4.73;;;3.53;;
14247;SDS011;7208;49.826;6.004;2023-05-07T02:40:29;3.17;;;2.97;;
14247;SDS011;7208;49.826;6.004;2023-05-07T02:42:58;3.43;;;3.00;;
14247;SDS011;7208;49.826;6.004;2023-05-07T02:45:24;4.23;;;3.30;;
14247;SDS011;7208;49.826;6.004;2023-05-07T02:47:50;3.97;;;3.20;;
14247;SDS011;7208;49.826;6.004;2023-05-07T02:50:16;4.40;;;3.27;;
14247;SDS011;7208;49.826;6.004;2023-05-07T02:52:42;3.47;;;3.17;;
14247;SDS011;7208;49.826;6.004;2023-05-07T02:55:08;3.40;;;3.10;;
14247;SDS011;7208;49.826;6.004;2023-05-07T02:57:34;3.60;;;3.30;;
14247;SDS011;7208;49.826;6.004;2023-05-07T03:00:09;3.70;;;3.40;;
14247;SDS011;7208;49.826;6.004;2023-05-07T03:02:35;3.60;;;3.17;;
14247;SDS011;7208;49.826;6.004;2023-05-07T03:05:01;3.87;;;3.03;;
14247;SDS011;7208;49.826;6.004;2023-05-07T03:07:28;4.10;;;3.70;;
14247;SDS011;7208;49.826;6.004;2023-05-07T03:09:54;3.77;;;3.30;;
14247;SDS011;7208;49.826;6.004;2023-05-07T03:12:20;3.77;;;3.30;;
14247;SDS011;7208;49.826;6.004;2023-05-07T03:14:46;5.47;;;3.73;;
14247;SDS011;7208;49.826;6.004;2023-05-07T03:17:12;3.57;;;3.27;;
14247;SDS011;7208;49.826;6.004;2023-05-07T03:19:38;3.80;;;3.53;;
14247;SDS011;7208;49.826;6.004;2023-05-07T03:22:04;3.70;;;3.40;;
14247;SDS011;7208;49.826;6.004;2023-05-07T03:24:30;3.47;;;3.17;;
14247;SDS011;7208;49.826;6.004;2023-05-07T03:26:56;4.47;;;3.37;;
14247;SDS011;7208;49.826;6.004;2023-05-07T03:29:23;3.37;;;2.97;;
14247;SDS011;7208;49.826;6.004;2023-05-07T03:31:49;3.77;;;2.87;;
14247;SDS011;7208;49.826;6.004;2023-05-07T03:34:15;4.87;;;2.77;;
14247;SDS011;7208;49.826;6.004;2023-05-07T03:36:42;3.77;;;3.47;;
14247;SDS011;7208;49.826;6.004;2023-05-07T03:39:08;3.00;;;2.70;;
14247;SDS011;7208;49.826;6.004;2023-05-07T03:41:34;5.07;;;3.10;;
14247;SDS011;7208;49.826;6.004;2023-05-07T03:44:00;2.63;;;2.43;;
14247;SDS011;7208;49.826;6.004;2023-05-07T03:46:26;3.07;;;2.87;;
14247;SDS011;7208;49.826;6.004;2023-05-07T03:48:53;3.50;;;3.20;;
14247;SDS011;7208;49.826;6.004;2023-05-07T03:51:19;3.93;;;2.73;;
14247;SDS011;7208;49.826;6.004;2023-05-07T03:53:45;3.13;;;2.83;;
14247;SDS011;7208;49.826;6.004;2023-05-07T03:56:11;5.23;;;3.17;;
14247;SDS011;7208;49.826;6.004;2023-05-07T03:58:37;7.57;;;3.27;;
14247;SDS011;7208;49.826;6.004;2023-05-07T04:01:03;3.60;;;3.30;;
14247;SDS011;7208;49.826;6.004;2023-05-07T04:03:29;4.90;;;3.33;;
14247;SDS011;7208;49.826;6.004;2023-05-07T04:05:55;4.20;;;3.53;;
14247;SDS011;7208;49.826;6.004;2023-05-07T04:08:21;3.73;;;3.00;;
14247;SDS011;7208;49.826;6.004;2023-05-07T04:10:47;3.90;;;3.53;;
14247;SDS011;7208;49.826;6.004;2023-05-07T04:13:13;3.73;;;3.43;;
14247;SDS011;7208;49.826;6.004;2023-05-07T04:15:39;4.10;;;3.30;;
14247;SDS011;7208;49.826;6.004;2023-05-07T04:18:05;3.37;;;3.07;;
14247;SDS011;7208;49.826;6.004;2023-05-07T04:20:33;4.07;;;3.30;;
14247;SDS011;7208;49.826;6.004;2023-05-07T04:23:01;2.80;;;2.60;;
14247;SDS011;7208;49.826;6.004;2023-05-07T04:25:27;7.53;;;3.07;;
14247;SDS011;7208;49.826;6.004;2023-05-07T04:27:54;4.87;;;2.83;;
14247;SDS011;7208;49.826;6.004;2023-05-07T04:30:20;3.37;;;2.87;;
14247;SDS011;7208;49.826;6.004;2023-05-07T04:32:46;3.73;;;3.33;;
14247;SDS011;7208;49.826;6.004;2023-05-07T04:35:13;3.57;;;2.93;;
14247;SDS011;7208;49.826;6.004;2023-05-07T04:37:39;6.27;;;3.30;;
14247;SDS011;7208;49.826;6.004;2023-05-07T04:40:05;3.30;;;3.10;;
14247;SDS011;7208;49.826;6.004;2023-05-07T04:42:32;4.47;;;3.47;;
14247;SDS011;7208;49.826;6.004;2023-05-07T04:44:58;3.07;;;2.87;;
14247;SDS011;7208;49.826;6.004;2023-05-07T04:47:24;4.10;;;3.80;;
14247;SDS011;7208;49.826;6.004;2023-05-07T04:49:50;3.57;;;3.27;;
14247;SDS011;7208;49.826;6.004;2023-05-07T04:52:16;3.97;;;3.57;;
14247;SDS011;7208;49.826;6.004;2023-05-07T04:54:42;3.77;;;3.47;;
14247;SDS011;7208;49.826;6.004;2023-05-07T04:57:08;5.77;;;4.33;;
14247;SDS011;7208;49.826;6.004;2023-05-07T04:59:34;4.13;;;3.83;;
14247;SDS011;7208;49.826;6.004;2023-05-07T05:02:00;6.63;;;4.37;;
14247;SDS011;7208;49.826;6.004;2023-05-07T05:04:26;5.53;;;4.63;;
14247;SDS011;7208;49.826;6.004;2023-05-07T05:06:52;5.20;;;4.70;;
14247;SDS011;7208;49.826;6.004;2023-05-07T05:09:18;4.20;;;3.90;;
14247;SDS011;7208;49.826;6.004;2023-05-07T05:11:44;4.27;;;3.97;;
14247;SDS011;7208;49.826;6.004;2023-05-07T05:14:10;4.30;;;4.00;;
14247;SDS011;7208;49.826;6.004;2023-05-07T05:16:36;4.27;;;3.50;;
14247;SDS011;7208;49.826;6.004;2023-05-07T05:19:02;4.57;;;4.10;;
14247;SDS011;7208;49.826;6.004;2023-05-07T05:21:28;4.07;;;3.77;;
14247;SDS011;7208;49.826;6.004;2023-05-07T05:23:54;4.27;;;3.87;;
14247;SDS011;7208;49.826;6.004;2023-05-07T05:26:20;6.40;;;5.90;;
14247;SDS011;7208;49.826;6.004;2023-05-07T05:28:46;6.40;;;5.47;;
14247;SDS011;7208;49.826;6.004;2023-05-07T05:31:13;6.80;;;6.10;;
14247;SDS011;7208;49.826;6.004;2023-05-07T05:33:39;4.93;;;4.53;;
14247;SDS011;7208;49.826;6.004;2023-05-07T05:36:05;5.83;;;5.30;;
14247;SDS011;7208;49.826;6.004;2023-05-07T05:38:31;8.93;;;7.90;;
14247;SDS011;7208;49.826;6.004;2023-05-07T05:40:57;7.80;;;7.10;;
14247;SDS011;7208;49.826;6.004;2023-05-07T05:43:23;7.20;;;5.70;;
14247;SDS011;7208;49.826;6.004;2023-05-07T05:45:49;5.40;;;5.00;;
14247;SDS011;7208;49.826;6.004;2023-05-07T05:48:15;5.10;;;4.70;;
14247;SDS011;7208;49.826;6.004;2023-05-07T05:50:42;4.33;;;4.03;;
14247;SDS011;7208;49.826;6.004;2023-05-07T05:53:08;3.93;;;3.63;;
14247;SDS011;7208;49.826;6.004;2023-05-07T05:55:34;5.60;;;3.80;;
14247;SDS011;7208;49.826;6.004;2023-05-07T05:58:00;4.00;;;3.70;;
14247;SDS011;7208;49.826;6.004;2023-05-07T06:00:27;6.00;;;3.83;;
14247;SDS011;7208;49.826;6.004;2023-05-07T06:02:53;3.40;;;3.10;;
14247;SDS011;7208;49.826;6.004;2023-05-07T06:05:19;4.93;;;3.00;;
14247;SDS011;7208;49.826;6.004;2023-05-07T06:07:45;3.43;;;3.13;;
14247;SDS011;7208;49.826;6.004;2023-05-07T06:10:11;3.33;;;3.10;;
14247;SDS011;7208;49.826;6.004;2023-05-07T06:12:37;3.27;;;3.03;;
14247;SDS011;7208;49.826;6.004;2023-05-07T06:15:03;3.80;;;3.00;;
14247;SDS011;7208;49.826;6.004;2023-05-07T06:17:29;2.53;;;2.33;;
14247;SDS011;7208;49.826;6.004;2023-05-07T06:19:55;2.33;;;2.17;;
14247;SDS011;7208;49.826;6.004;2023-05-07T06:22:21;2.57;;;2.37;;
14247;SDS011;7208;49.826;6.004;2023-05-07T06:24:47;2.57;;;2.37;;
14247;SDS011;7208;49.826;6.004;2023-05-07T06:27:13;2.80;;;2.27;;
14247;SDS011;7208;49.826;6.004;2023-05-07T06:29:39;3.37;;;2.00;;
14247;SDS011;7208;49.826;6.004;2023-05-07T06:32:06;3.53;;;2.13;;
14247;SDS011;7208;49.826;6.004;2023-05-07T06:34:32;2.40;;;2.20;;
14247;SDS011;7208;49.826;6.004;2023-05-07T06:36:58;2.70;;;2.10;;
14247;SDS011;7208;49.826;6.004;2023-05-07T06:39:25;2.67;;;2.47;;
14247;SDS011;7208;49.826;6.004;2023-05-07T06:41:51;2.83;;;2.63;;
14247;SDS011;7208;49.826;6.004;2023-05-07T06:44:17;2.40;;;2.20;;
14247;SDS011;7208;49.826;6.004;2023-05-07T06:46:43;3.37;;;2.17;;
14247;SDS011;7208;49.826;6.004;2023-05-07T06:49:09;1.80;;;1.70;;
14247;SDS011;7208;49.826;6.004;2023-05-07T06:51:35;1.83;;;1.73;;
14247;SDS011;7208;49.826;6.004;2023-05-07T06:54:01;3.17;;;1.73;;
14247;SDS011;7208;49.826;6.004;2023-05-07T06:56:27;2.10;;;1.80;;
14247;SDS011;7208;49.826;6.004;2023-05-07T06:58:53;2.00;;;1.80;;
14247;SDS011;7208;49.826;6.004;2023-05-07T07:01:19;2.00;;;1.90;;
14247;SDS011;7208;49.826;6.004;2023-05-07T07:03:45;1.67;;;1.57;;
14247;SDS011;7208;49.826;6.004;2023-05-07T07:06:11;2.57;;;2.00;;
14247;SDS011;7208;49.826;6.004;2023-05-07T07:08:37;1.73;;;1.63;;
14247;SDS011;7208;49.826;6.004;2023-05-07T07:11:04;2.47;;;1.70;;
14247;SDS011;7208;49.826;6.004;2023-05-07T07:13:30;1.90;;;1.67;;
14247;SDS011;7208;49.826;6.004;2023-05-07T07:15:56;2.40;;;2.20;;
14247;SDS011;7208;49.826;6.004;2023-05-07T07:18:22;2.93;;;2.10;;
14247;SDS011;7208;49.826;6.004;2023-05-07T07:20:48;2.93;;;2.23;;
14247;SDS011;7208;49.826;6.004;2023-05-07T07:23:14;1.83;;;1.70;;
14247;SDS011;7208;49.826;6.004;2023-05-07T07:25:40;2.87;;;2.13;;
14247;SDS011;7208;49.826;6.004;2023-05-07T07:28:06;2.03;;;1.83;;
14247;SDS011;7208;49.826;6.004;2023-05-07T07:30:32;2.10;;;1.90;;
14247;SDS011;7208;49.826;6.004;2023-05-07T07:32:58;2.30;;;1.80;;
14247;SDS011;7208;49.826;6.004;2023-05-07T07:35:34;1.93;;;1.57;;
14247;SDS011;7208;49.826;6.004;2023-05-07T07:38:00;2.10;;;1.90;;
14247;SDS011;7208;49.826;6.004;2023-05-07T07:40:26;1.97;;;1.87;;
14247;SDS011;7208;49.826;6.004;2023-05-07T07:42:53;1.80;;;1.70;;
14247;SDS011;7208;49.826;6.004;2023-05-07T07:45:19;2.40;;;1.90;;
14247;SDS011;7208;49.826;6.004;2023-05-07T07:47:45;2.80;;;2.00;;
14247;SDS011;7208;49.826;6.004;2023-05-07T07:50:11;2.90;;;1.70;;
14247;SDS011;7208;49.826;6.004;2023-05-07T07:52:37;2.60;;;1.63;;
14247;SDS011;7208;49.826;6.004;2023-05-07T07:55:03;2.40;;;1.70;;
14247;SDS011;7208;49.826;6.004;2023-05-07T07:57:30;2.23;;;1.43;;
14247;SDS011;7208;49.826;6.004;2023-05-07T07:59:55;2.23;;;1.57;;
14247;SDS011;7208;49.826;6.004;2023-05-07T08:02:22;1.30;;;1.20;;
14247;SDS011;7208;49.826;6.004;2023-05-07T08:04:47;2.90;;;1.43;;
14247;SDS011;7208;49.826;6.004;2023-05-07T08:07:13;1.80;;;1.43;;
14247;SDS011;7208;49.826;6.004;2023-05-07T08:09:40;2.03;;;1.47;;
14247;SDS011;7208;49.826;6.004;2023-05-07T08:12:06;2.20;;;2.00;;
14247;SDS011;7208;49.826;6.004;2023-05-07T08:14:32;3.53;;;1.90;;
14247;SDS011;7208;49.826;6.004;2023-05-07T08:16:58;3.23;;;1.90;;
14247;SDS011;7208;49.826;6.004;2023-05-07T08:19:25;4.33;;;3.93;;
14247;SDS011;7208;49.826;6.004;2023-05-07T08:21:51;1.90;;;1.80;;
14247;SDS011;7208;49.826;6.004;2023-05-07T08:24:17;1.60;;;1.30;;
14247;SDS011;7208;49.826;6.004;2023-05-07T08:26:43;1.57;;;1.30;;
14247;SDS011;7208;49.826;6.004;2023-05-07T08:29:10;1.73;;;1.47;;
14247;SDS011;7208;49.826;6.004;2023-05-07T08:31:36;1.83;;;1.70;;
14247;SDS011;7208;49.826;6.004;2023-05-07T08:34:04;2.00;;;1.70;;
14247;SDS011;7208;49.826;6.004;2023-05-07T08:36:31;1.87;;;1.67;;
14247;SDS011;7208;49.826;6.004;2023-05-07T08:38:57;1.83;;;1.40;;
14247;SDS011;7208;49.826;6.004;2023-05-07T08:41:23;1.63;;;1.53;;
14247;SDS011;7208;49.826;6.004;2023-05-07T08:43:51;2.60;;;1.50;;
14247;SDS011;7208;49.826;6.004;2023-05-07T08:46:22;1.90;;;1.53;;
14247;SDS011;7208;49.826;6.004;2023-05-07T08:48:48;1.40;;;1.30;;
14247;SDS011;7208;49.826;6.004;2023-05-07T08:51:18;1.77;;;1.50;;
14247;SDS011;7208;49.826;6.004;2023-05-07T08:53:46;3.27;;;1.60;;
14247;SDS011;7208;49.826;6.004;2023-05-07T08:56:13;1.50;;;1.23;;
14247;SDS011;7208;49.826;6.004;2023-05-07T08:58:40;1.20;;;1.10;;
14247;SDS011;7208;49.826;6.004;2023-05-07T09:01:10;1.40;;;1.30;;
14247;SDS011;7208;49.826;6.004;2023-05-07T09:03:38;1.70;;;1.20;;
14247;SDS011;7208;49.826;6.004;2023-05-07T09:06:04;3.87;;;1.50;;
14247;SDS011;7208;49.826;6.004;2023-05-07T09:08:32;2.23;;;1.27;;
14247;SDS011;7208;49.826;6.004;2023-05-07T09:10:58;1.63;;;1.30;;
14247;SDS011;7208;49.826;6.004;2023-05-07T09:13:24;3.60;;;1.87;;
14247;SDS011;7208;49.826;6.004;2023-05-07T09:15:50;1.37;;;1.23;;
14247;SDS011;7208;49.826;6.004;2023-05-07T09:18:16;1.40;;;1.10;;
14247;SDS011;7208;49.826;6.004;2023-05-07T09:20:43;1.57;;;1.47;;
14247;SDS011;7208;49.826;6.004;2023-05-07T09:23:12;1.47;;;1.37;;
14247;SDS011;7208;49.826;6.004;2023-05-07T09:25:38;1.80;;;1.40;;
14247;SDS011;7208;49.826;6.004;2023-05-07T09:28:04;2.50;;;1.50;;
14247;SDS011;7208;49.826;6.004;2023-05-07T09:30:35;1.70;;;1.53;;
14247;SDS011;7208;49.826;6.004;2023-05-07T09:33:02;1.57;;;1.47;;
14247;SDS011;7208;49.826;6.004;2023-05-07T09:35:29;2.57;;;1.50;;
14247;SDS011;7208;49.826;6.004;2023-05-07T09:37:57;1.40;;;1.30;;
14247;SDS011;7208;49.826;6.004;2023-05-07T09:40:24;1.50;;;1.40;;
14247;SDS011;7208;49.826;6.004;2023-05-07T09:42:50;1.53;;;1.43;;
14247;SDS011;7208;49.826;6.004;2023-05-07T09:45:26;1.87;;;1.57;;
14247;SDS011;7208;49.826;6.004;2023-05-07T09:47:56;1.83;;;1.33;;
14247;SDS011;7208;49.826;6.004;2023-05-07T09:50:27;2.30;;;1.57;;
14247;SDS011;7208;49.826;6.004;2023-05-07T09:52:56;1.77;;;1.60;;
14247;SDS011;7208;49.826;6.004;2023-05-07T09:55:22;2.07;;;1.87;;
14247;SDS011;7208;49.826;6.004;2023-05-07T09:57:52;2.00;;;1.80;;
14247;SDS011;7208;49.826;6.004;2023-05-07T10:00:21;1.93;;;1.33;;
14247;SDS011;7208;49.826;6.004;2023-05-07T10:02:48;1.53;;;1.43;;
14247;SDS011;7208;49.826;6.004;2023-05-07T10:05:14;1.90;;;1.80;;
14247;SDS011;7208;49.826;6.004;2023-05-07T10:07:41;1.73;;;1.63;;
14247;SDS011;7208;49.826;6.004;2023-05-07T10:10:07;1.53;;;1.40;;
14247;SDS011;7208;49.826;6.004;2023-05-07T10:12:33;1.50;;;1.40;;
14247;SDS011;7208;49.826;6.004;2023-05-07T10:15:07;1.58;;;1.48;;
14247;SDS011;7208;49.826;6.004;2023-05-07T10:17:37;1.63;;;1.40;;
14247;SDS011;7208;49.826;6.004;2023-05-07T10:20:04;2.20;;;1.42;;
14247;SDS011;7208;49.826;6.004;2023-05-07T10:22:32;1.88;;;1.10;;
14247;SDS011;7208;49.826;6.004;2023-05-07T10:24:59;1.33;;;1.00;;
14247;SDS011;7208;49.826;6.004;2023-05-07T10:27:27;2.65;;;1.63;;
14247;SDS011;7208;49.826;6.004;2023-05-07T10:30:15;1.70;;;1.60;;
14247;SDS011;7208;49.826;6.004;2023-05-07T10:32:51;2.17;;;1.40;;
14247;SDS011;7208;49.826;6.004;2023-05-07T10:35:23;2.90;;;1.20;;
14247;SDS011;7208;49.826;6.004;2023-05-07T10:37:49;1.42;;;1.20;;
14247;SDS011;7208;49.826;6.004;2023-05-07T10:40:16;1.65;;;1.40;;
14247;SDS011;7208;49.826;6.004;2023-05-07T10:43:00;2.13;;;1.30;;
14247;SDS011;7208;49.826;6.004;2023-05-07T10:45:27;2.10;;;1.30;;
14247;SDS011;7208;49.826;6.004;2023-05-07T10:48:06;1.02;;;0.93;;
14247;SDS011;7208;49.826;6.004;2023-05-07T10:50:33;1.40;;;0.98;;
14247;SDS011;7208;49.826;6.004;2023-05-07T10:55:44;0.95;;;0.80;;
14247;SDS011;7208;49.826;6.004;2023-05-07T11:00:49;1.55;;;0.90;;
14247;SDS011;7208;49.826;6.004;2023-05-07T11:03:16;2.03;;;0.98;;
14247;SDS011;7208;49.826;6.004;2023-05-07T11:05:42;0.90;;;0.80;;
14247;SDS011;7208;49.826;6.004;2023-05-07T11:08:08;1.45;;;1.00;;
14247;SDS011;7208;49.826;6.004;2023-05-07T11:10:54;1.25;;;1.02;;
14247;SDS011;7208;49.826;6.004;2023-05-07T11:16:15;2.23;;;0.80;;
14247;SDS011;7208;49.826;6.004;2023-05-07T11:21:31;0.73;;;0.73;;
14247;SDS011;7208;49.826;6.004;2023-05-07T11:23:57;1.40;;;1.13;;
14247;SDS011;7208;49.826;6.004;2023-05-07T11:26:24;1.87;;;1.10;;
14247;SDS011;7208;49.826;6.004;2023-05-07T11:28:50;1.87;;;1.00;;
14247;SDS011;7208;49.826;6.004;2023-05-07T11:31:20;1.63;;;1.00;;
14247;SDS011;7208;49.826;6.004;2023-05-07T11:33:46;0.80;;;0.80;;
14247;SDS011;7208;49.826;6.004;2023-05-07T11:36:12;1.17;;;0.70;;
14247;SDS011;7208;49.826;6.004;2023-05-07T11:38:38;1.63;;;1.10;;
14247;SDS011;7208;49.826;6.004;2023-05-07T11:41:04;1.33;;;0.83;;
14247;SDS011;7208;49.826;6.004;2023-05-07T11:43:31;1.57;;;0.70;;
14247;SDS011;7208;49.826;6.004;2023-05-07T11:46:10;0.83;;;0.77;;
14247;SDS011;7208;49.826;6.004;2023-05-07T11:48:37;0.63;;;0.63;;
14247;SDS011;7208;49.826;6.004;2023-05-07T11:51:04;1.70;;;0.90;;
14247;SDS011;7208;49.826;6.004;2023-05-07T11:53:37;1.00;;;0.80;;
14247;SDS011;7208;49.826;6.004;2023-05-07T11:56:07;0.97;;;0.90;;
14247;SDS011;7208;49.826;6.004;2023-05-07T11:58:33;1.23;;;0.63;;
14247;SDS011;7208;49.826;6.004;2023-05-07T12:00:59;1.83;;;0.60;;
14247;SDS011;7208;49.826;6.004;2023-05-07T12:03:25;1.50;;;0.97;;
14247;SDS011;7208;49.826;6.004;2023-05-07T12:05:51;0.70;;;0.70;;
14247;SDS011;7208;49.826;6.004;2023-05-07T12:08:18;1.80;;;0.70;;
14247;SDS011;7208;49.826;6.004;2023-05-07T12:10:46;0.90;;;0.90;;
14247;SDS011;7208;49.826;6.004;2023-05-07T12:15:42;1.27;;;0.70;;
14247;SDS011;7208;49.826;6.004;2023-05-07T12:18:08;0.70;;;0.63;;
14247;SDS011;7208;49.826;6.004;2023-05-07T12:20:35;0.97;;;0.70;;
14247;SDS011;7208;49.826;6.004;2023-05-07T12:23:02;0.50;;;0.50;;
14247;SDS011;7208;49.826;6.004;2023-05-07T12:25:32;1.00;;;0.57;;
14247;SDS011;7208;49.826;6.004;2023-05-07T12:28:00;2.27;;;1.00;;
14247;SDS011;7208;49.826;6.004;2023-05-07T12:30:26;0.87;;;0.70;;
14247;SDS011;7208;49.826;6.004;2023-05-07T12:32:53;1.23;;;0.80;;
14247;SDS011;7208;49.826;6.004;2023-05-07T12:35:29;1.20;;;1.10;;
14247;SDS011;7208;49.826;6.004;2023-05-07T12:37:56;2.37;;;1.10;;
14247;SDS011;7208;49.826;6.004;2023-05-07T12:40:24;2.10;;;1.43;;
14247;SDS011;7208;49.826;6.004;2023-05-07T12:42:52;2.30;;;1.40;;
14247;SDS011;7208;49.826;6.004;2023-05-07T12:45:21;2.03;;;1.90;;
14247;SDS011;7208;49.826;6.004;2023-05-07T12:47:47;4.60;;;2.20;;
14247;SDS011;7208;49.826;6.004;2023-05-07T12:50:14;2.30;;;2.10;;
14247;SDS011;7208;49.826;6.004;2023-05-07T12:52:40;3.23;;;2.10;;
14247;SDS011;7208;49.826;6.004;2023-05-07T12:55:07;2.50;;;2.20;;
14247;SDS011;7208;49.826;6.004;2023-05-07T12:57:43;3.67;;;2.40;;
14247;SDS011;7208;49.826;6.004;2023-05-07T13:00:11;2.40;;;2.20;;
14247;SDS011;7208;49.826;6.004;2023-05-07T13:02:38;3.00;;;2.43;;
14247;SDS011;7208;49.826;6.004;2023-05-07T13:05:04;3.00;;;2.70;;
14247;SDS011;7208;49.826;6.004;2023-05-07T13:07:30;3.10;;;2.90;;
14247;SDS011;7208;49.826;6.004;2023-05-07T13:09:56;4.10;;;3.50;;
14247;SDS011;7208;49.826;6.004;2023-05-07T13:12:22;3.67;;;2.20;;
14247;SDS011;7208;49.826;6.004;2023-05-07T13:14:48;2.80;;;2.43;;
14247;SDS011;7208;49.826;6.004;2023-05-07T13:17:14;3.33;;;2.63;;
14247;SDS011;7208;49.826;6.004;2023-05-07T13:19:40;2.90;;;2.20;;
14247;SDS011;7208;49.826;6.004;2023-05-07T13:22:06;3.17;;;2.03;;
14247;SDS011;7208;49.826;6.004;2023-05-07T13:24:32;3.10;;;2.70;;
14247;SDS011;7208;49.826;6.004;2023-05-07T13:26:58;2.43;;;2.13;;
14247;SDS011;7208;49.826;6.004;2023-05-07T13:29:24;2.93;;;2.37;;
14247;SDS011;7208;49.826;6.004;2023-05-07T13:31:55;3.70;;;2.57;;
14247;SDS011;7208;49.826;6.004;2023-05-07T13:34:21;2.97;;;2.43;;
14247;SDS011;7208;49.826;6.004;2023-05-07T13:36:47;2.47;;;2.27;;
14247;SDS011;7208;49.826;6.004;2023-05-07T13:39:13;2.40;;;2.20;;
14247;SDS011;7208;49.826;6.004;2023-05-07T13:41:39;3.70;;;2.30;;
14247;SDS011;7208;49.826;6.004;2023-05-07T13:44:05;3.90;;;2.33;;
14247;SDS011;7208;49.826;6.004;2023-05-07T13:46:31;2.80;;;2.30;;
14247;SDS011;7208;49.826;6.004;2023-05-07T13:48:57;3.40;;;2.20;;
14247;SDS011;7208;49.826;6.004;2023-05-07T13:51:23;2.43;;;2.23;;
14247;SDS011;7208;49.826;6.004;2023-05-07T13:53:50;2.57;;;2.37;;
14247;SDS011;7208;49.826;6.004;2023-05-07T13:56:17;2.20;;;2.00;;
14247;SDS011;7208;49.826;6.004;2023-05-07T13:58:43;2.73;;;2.53;;
14247;SDS011;7208;49.826;6.004;2023-05-07T14:01:09;2.63;;;2.07;;
14247;SDS011;7208;49.826;6.004;2023-05-07T14:03:35;2.30;;;2.10;;
14247;SDS011;7208;49.826;6.004;2023-05-07T14:06:03;2.00;;;1.80;;
14247;SDS011;7208;49.826;6.004;2023-05-07T14:08:29;2.57;;;2.30;;
14247;SDS011;7208;49.826;6.004;2023-05-07T14:10:55;2.10;;;1.90;;
14247;SDS011;7208;49.826;6.004;2023-05-07T14:13:21;3.97;;;1.90;;
14247;SDS011;7208;49.826;6.004;2023-05-07T14:15:47;3.57;;;1.97;;
14247;SDS011;7208;49.826;6.004;2023-05-07T14:18:14;2.67;;;2.03;;
14247;SDS011;7208;49.826;6.004;2023-05-07T14:20:40;2.97;;;1.93;;
14247;SDS011;7208;49.826;6.004;2023-05-07T14:23:08;1.80;;;1.70;;
14247;SDS011;7208;49.826;6.004;2023-05-07T14:25:34;3.93;;;1.97;;
14247;SDS011;7208;49.826;6.004;2023-05-07T14:28:00;2.43;;;1.70;;
14247;SDS011;7208;49.826;6.004;2023-05-07T14:30:26;3.13;;;1.90;;
14247;SDS011;7208;49.826;6.004;2023-05-07T14:32:52;2.67;;;1.87;;
14247;SDS011;7208;49.826;6.004;2023-05-07T14:35:18;2.70;;;2.03;;
14247;SDS011;7208;49.826;6.004;2023-05-07T14:37:44;2.33;;;2.23;;
14247;SDS011;7208;49.826;6.004;2023-05-07T14:40:10;2.40;;;1.97;;
14247;SDS011;7208;49.826;6.004;2023-05-07T14:42:36;3.73;;;2.33;;
14247;SDS011;7208;49.826;6.004;2023-05-07T14:45:02;2.53;;;2.33;;
14247;SDS011;7208;49.826;6.004;2023-05-07T14:47:28;2.10;;;2.00;;
14247;SDS011;7208;49.826;6.004;2023-05-07T14:49:54;2.60;;;2.03;;
14247;SDS011;7208;49.826;6.004;2023-05-07T14:52:22;3.07;;;2.40;;
14247;SDS011;7208;49.826;6.004;2023-05-07T14:54:48;3.67;;;2.00;;
14247;SDS011;7208;49.826;6.004;2023-05-07T14:57:14;3.00;;;2.40;;
14247;SDS011;7208;49.826;6.004;2023-05-07T14:59:44;2.70;;;2.20;;
14247;SDS011;7208;49.826;6.004;2023-05-07T15:02:13;2.80;;;2.50;;
14247;SDS011;7208;49.826;6.004;2023-05-07T15:04:40;3.13;;;2.93;;
14247;SDS011;7208;49.826;6.004;2023-05-07T15:07:11;2.30;;;2.10;;
14247;SDS011;7208;49.826;6.004;2023-05-07T15:09:39;4.70;;;2.17;;
14247;SDS011;7208;49.826;6.004;2023-05-07T15:12:05;4.33;;;2.60;;